createdAt,value
2023-02-12T00:01:10.174Z,103019.94
2023-02-12T00:03:38.000Z,103026.13
2023-02-12T00:06:06.792Z,103017.28
2023-02-12T00:08:33.883Z,103015.53
2023-02-12T00:11:07.622Z,103021.75
2023-02-12T00:13:34.425Z,103019.94
2023-02-12T00:16:09.288Z,103020.84
2023-02-12T00:18:36.982Z,103030.53
2023-02-12T00:21:04.205Z,103034.09
2023-02-12T00:23:31.724Z,103030.53
2023-02-12T00:25:58.548Z,103038.44
2023-02-12T00:28:26.432Z,103034.88
2023-02-12T00:30:53.398Z,103034.84
2023-02-12T00:33:20.224Z,103033.03
2023-02-12T00:35:58.552Z,103034.84
2023-02-12T00:38:25.548Z,103032.13
2023-02-12T00:40:52.391Z,103040.03
2023-02-12T00:43:19.361Z,103031.22
2023-02-12T00:45:46.758Z,103021.44
2023-02-12T00:48:14.578Z,103031.19
2023-02-12T00:50:42.771Z,103032.03
2023-02-12T00:53:09.574Z,103040.75
2023-02-12T00:55:36.356Z,103038.13
2023-02-12T00:58:03.221Z,103026.59
2023-02-12T01:00:30.128Z,103034.53
2023-02-12T01:02:56.896Z,103030.13
2023-02-12T01:05:23.906Z,103036.34
2023-02-12T01:07:52.451Z,103034.53
2023-02-12T01:10:23.388Z,103046.94
2023-02-12T01:12:50.877Z,103047.78
2023-02-12T01:15:18.974Z,103045.13
2023-02-12T01:17:46.170Z,103046.94
2023-02-12T01:20:20.650Z,103051.38
2023-02-12T01:22:47.902Z,103054.94
2023-02-12T01:25:15.311Z,103055.78
2023-02-12T01:27:42.105Z,103050.44
2023-02-12T01:30:12.374Z,103049.53
2023-02-12T01:32:39.286Z,103053.09
2023-02-12T01:35:08.457Z,103046.94
2023-02-12T01:37:37.729Z,103052.25
2023-02-12T01:40:07.361Z,103049.53
2023-02-12T01:42:35.167Z,103053.94
2023-02-12T01:45:14.082Z,103055.75
2023-02-12T01:47:45.452Z,103052.13
2023-02-12T01:50:18.990Z,103059.16
2023-02-12T01:52:51.939Z,103046.78
2023-02-12T01:55:20.639Z,103057.44
2023-02-12T01:57:49.260Z,103051.22
2023-02-12T02:00:22.628Z,103052.13
2023-02-12T02:02:55.000Z,103052.94
2023-02-12T02:05:49.898Z,103050.31
2023-02-12T02:08:17.065Z,103052.03
2023-02-12T02:10:43.882Z,103053.78
2023-02-12T02:13:29.139Z,103059.91
2023-02-12T02:16:01.829Z,103052.88
2023-02-12T02:18:46.593Z,103050.22
2023-02-12T02:21:46.513Z,103051.03
2023-02-12T02:24:23.186Z,103052.78
2023-02-12T02:28:01.609Z,103046.41
2023-02-12T02:30:45.286Z,103052.63
2023-02-12T02:33:29.216Z,103048.22
2023-02-12T02:36:14.682Z,103039.34
2023-02-12T02:38:57.201Z,103043.75
2023-02-12T02:41:55.204Z,103043.69
2023-02-12T02:44:52.172Z,103042.66
2023-02-12T02:47:32.936Z,103043.66
2023-02-12T02:50:18.804Z,103048.06
2023-02-12T02:53:05.456Z,103047.13
2023-02-12T02:55:47.317Z,103047.13
2023-02-12T02:58:27.024Z,103051.59
2023-02-12T03:01:19.000Z,103056.00
2023-02-12T03:04:01.414Z,103050.72
2023-02-12T03:06:47.413Z,103053.38
2023-02-12T03:09:31.966Z,103056.00
2023-02-12T03:12:03.503Z,103056.75
2023-02-12T03:14:37.754Z,103055.84
2023-02-12T03:17:08.966Z,103056.56
2023-02-12T03:19:56.075Z,103061.88
2023-02-12T03:22:33.320Z,103067.28
2023-02-12T03:25:15.478Z,103058.47
2023-02-12T03:27:54.678Z,103065.59
2023-02-12T03:30:22.861Z,103070.91
2023-02-12T03:33:30.273Z,103070.91
2023-02-12T03:36:22.959Z,103078.84
2023-02-12T03:38:55.437Z,103084.09
2023-02-12T03:41:32.702Z,103081.50
2023-02-12T03:44:28.473Z,103092.97
2023-02-12T03:47:30.142Z,103094.78
2023-02-12T03:50:16.672Z,103100.06
2023-02-12T03:52:43.900Z,103105.38
2023-02-12T03:55:11.442Z,103102.72
2023-02-12T03:57:44.608Z,103104.50
2023-02-12T04:00:18.629Z,103097.50
2023-02-12T04:02:46.105Z,103106.31
2023-02-12T04:05:26.528Z,103107.22
2023-02-12T04:07:56.046Z,103111.59
2023-02-12T04:10:33.289Z,103109.94
2023-02-12T04:13:19.360Z,103111.72
2023-02-12T04:16:41.780Z,103122.22
2023-02-12T04:19:14.143Z,103114.19
2023-02-12T04:21:47.002Z,103111.53
2023-02-12T04:24:56.897Z,103114.25
2023-02-12T04:28:11.173Z,103123.91
2023-02-12T04:30:46.081Z,103134.53
2023-02-12T04:33:21.300Z,103130.06
2023-02-12T04:35:57.178Z,103132.72
2023-02-12T04:38:27.856Z,103138.03
2023-02-12T04:40:55.193Z,103137.13
2023-02-12T04:43:36.587Z,103138.03
2023-02-12T04:46:06.453Z,103143.25
2023-02-12T04:48:34.658Z,103146.81
2023-02-12T04:51:01.984Z,103148.63
2023-02-12T04:53:29.205Z,103142.50
2023-02-12T04:55:56.401Z,103141.75
2023-02-12T04:58:23.354Z,103143.53
2023-02-12T05:00:50.126Z,103142.69
2023-02-12T05:03:16.922Z,103143.53
2023-02-12T05:05:43.743Z,103147.06
2023-02-12T05:08:10.497Z,103148.78
2023-02-12T05:10:37.287Z,103157.59
2023-02-12T05:13:04.096Z,103153.13
2023-02-12T05:15:30.890Z,103153.19
2023-02-12T05:17:57.721Z,103155.88
2023-02-12T05:20:24.516Z,103150.56
2023-02-12T05:22:54.458Z,103154.13
2023-02-12T05:25:21.871Z,103159.44
2023-02-12T05:27:48.686Z,103155.84
2023-02-12T05:30:15.610Z,103155.84
2023-02-12T05:32:42.395Z,103151.38
2023-02-12T05:35:09.227Z,103154.94
2023-02-12T05:37:36.667Z,103157.50
2023-02-12T05:40:08.698Z,103153.09
2023-02-12T05:42:35.652Z,103160.06
2023-02-12T05:45:02.467Z,103151.28
2023-02-12T05:47:29.273Z,103163.63
2023-02-12T05:49:56.119Z,103159.22
2023-02-12T05:52:22.928Z,103154.75
2023-02-12T05:54:50.551Z,103155.75
2023-02-12T05:57:17.359Z,103160.06
2023-02-12T05:59:44.169Z,103164.53
2023-02-12T06:02:11.061Z,103158.25
2023-02-12T06:04:37.886Z,103162.72
2023-02-12T06:07:04.703Z,103160.97
2023-02-12T06:09:31.471Z,103163.63
2023-02-12T06:11:58.230Z,103155.66
2023-02-12T06:14:25.017Z,103164.53
2023-02-12T06:16:52.835Z,103161.91
2023-02-12T06:19:20.217Z,103168.13
2023-02-12T06:21:47.751Z,103174.31
2023-02-12T06:24:16.365Z,103176.94
2023-02-12T06:26:43.439Z,103175.13
2023-02-12T06:29:10.437Z,103176.94
2023-02-12T06:31:38.181Z,103173.31
2023-02-12T06:34:08.746Z,103175.13
2023-02-12T06:36:39.273Z,103174.22
2023-02-12T06:39:06.702Z,103183.09
2023-02-12T06:41:34.197Z,103188.38
2023-02-12T06:44:00.975Z,103177.72
2023-02-12T06:46:28.178Z,103193.63
2023-02-12T06:48:57.896Z,103198.00
2023-02-12T06:51:25.756Z,103199.72
2023-02-12T06:53:54.439Z,103205.03
2023-02-12T06:56:22.873Z,103210.31
2023-02-12T06:58:56.415Z,103208.63
2023-02-12T07:01:27.515Z,103208.63
2023-02-12T07:04:12.877Z,103210.38
2023-02-12T07:06:39.841Z,103206.81
2023-02-12T07:09:06.707Z,103207.72
2023-02-12T07:11:38.141Z,103213.09
2023-02-12T07:14:06.437Z,103202.56
2023-02-12T07:16:33.440Z,103214.06
2023-02-12T07:19:00.292Z,103207.88
2023-02-12T07:21:27.060Z,103212.34
2023-02-12T07:23:53.939Z,103212.34
2023-02-12T07:26:21.834Z,103213.25
2023-02-12T07:28:50.698Z,103205.38
2023-02-12T07:31:21.909Z,103214.16
2023-02-12T07:33:50.147Z,103217.75
2023-02-12T07:36:19.235Z,103216.09
2023-02-12T07:38:47.099Z,103214.44
2023-02-12T07:41:16.377Z,103214.53
2023-02-12T07:43:46.706Z,103215.47
2023-02-12T07:46:22.765Z,103225.22
2023-02-12T07:48:52.162Z,103222.66
2023-02-12T07:51:19.316Z,103216.53
2023-02-12T07:53:46.623Z,103222.00
2023-02-12T07:56:23.291Z,103233.53
2023-02-12T07:58:52.848Z,103237.00
2023-02-12T08:01:32.583Z,103234.38
2023-02-12T08:04:02.803Z,103239.69
2023-02-12T08:06:32.519Z,103236.19
2023-02-12T08:09:02.167Z,103238.00
2023-02-12T08:11:30.051Z,103247.72
2023-02-12T08:13:58.248Z,103238.00
2023-02-12T08:16:27.063Z,103237.16
2023-02-12T08:18:55.120Z,103231.00
2023-02-12T08:21:25.951Z,103240.75
2023-02-12T08:23:56.021Z,103236.44
2023-02-12T08:26:28.931Z,103247.94
2023-02-12T08:29:06.734Z,103248.81
2023-02-12T08:31:38.178Z,103252.34
2023-02-12T08:34:05.959Z,103249.72
2023-02-12T08:36:40.038Z,103258.66
2023-02-12T08:39:08.293Z,103259.56
2023-02-12T08:41:35.557Z,103263.16
2023-02-12T08:44:05.221Z,103267.72
2023-02-12T08:46:38.093Z,103275.69
2023-02-12T08:49:10.159Z,103266.06
2023-02-12T08:51:40.917Z,103268.72
2023-02-12T08:54:12.941Z,103270.53
2023-02-12T08:56:40.107Z,103279.44
2023-02-12T08:59:08.279Z,103274.13
2023-02-12T09:01:40.940Z,103286.56
2023-02-12T09:04:15.385Z,103294.63
2023-02-12T09:06:42.192Z,103291.09
2023-02-12T09:09:09.016Z,103292.88
2023-02-12T09:11:36.064Z,103293.00
2023-02-12T09:14:06.661Z,103295.69
2023-02-12T09:19:47.166Z,103295.84
2023-02-12T09:22:14.080Z,103296.78
2023-02-12T09:24:41.053Z,103299.53
2023-02-12T09:27:07.892Z,103292.53
2023-02-12T09:29:34.694Z,103302.31
2023-02-12T09:32:04.849Z,103306.78
2023-02-12T09:34:35.610Z,103305.81
2023-02-12T09:37:02.434Z,103313.78
2023-02-12T09:39:30.670Z,103315.47
2023-02-12T09:42:17.848Z,103311.06
2023-02-12T09:45:01.213Z,103320.75
2023-02-12T09:47:50.700Z,103317.28
2023-02-12T09:50:38.003Z,103315.59
2023-02-12T09:53:05.698Z,103328.03
2023-02-12T09:55:35.025Z,103322.81
2023-02-12T09:58:11.270Z,103326.41
2023-02-12T10:00:38.871Z,103322.00
2023-02-12T10:03:15.879Z,103323.06
2023-02-12T10:05:52.591Z,103324.84
2023-02-12T10:08:39.433Z,103326.66
2023-02-12T10:15:55.148Z,103320.09
2023-02-12T10:18:41.744Z,103332.59
2023-02-12T10:21:20.944Z,103333.53
2023-02-12T10:24:23.264Z,103338.00
2023-02-12T10:26:55.547Z,103342.50
2023-02-12T10:29:32.315Z,103337.28
2023-02-12T10:32:24.372Z,103328.56
2023-02-12T10:34:52.708Z,103330.38
2023-02-12T10:37:43.958Z,103329.72
2023-02-12T10:40:34.040Z,103327.22
2023-02-12T10:43:02.846Z,103335.41
2023-02-12T10:45:40.084Z,103333.00
2023-02-12T10:48:23.877Z,103327.78
2023-02-12T10:51:08.237Z,103338.56
2023-02-12T10:53:36.669Z,103331.44
2023-02-12T10:56:14.077Z,103335.94
2023-02-12T10:59:02.210Z,103335.03
2023-02-12T11:01:36.128Z,103331.53
2023-02-12T11:04:40.205Z,103331.59
2023-02-12T11:07:09.813Z,103326.31
2023-02-12T11:09:46.820Z,103326.31
2023-02-12T11:12:42.421Z,103327.22
2023-02-12T11:15:24.883Z,103327.19
2023-02-12T11:18:01.094Z,103321.81
2023-02-12T11:20:39.045Z,103327.22
2023-02-12T11:23:42.786Z,103314.09
2023-02-12T11:26:18.790Z,103318.63
2023-02-12T11:29:00.262Z,103317.78
2023-02-12T11:31:35.438Z,103312.41
2023-02-12T11:34:20.111Z,103304.50
2023-02-12T11:36:53.244Z,103308.09
2023-02-12T11:39:34.937Z,103298.38
2023-02-12T11:42:25.964Z,103299.34
2023-02-12T11:44:56.749Z,103306.56
2023-02-12T11:47:30.602Z,103300.50
2023-02-12T11:50:22.466Z,103296.19
2023-02-12T11:52:52.538Z,103298.09
2023-02-12T11:55:33.841Z,103296.44
2023-02-12T11:58:21.732Z,103294.69
2023-02-12T12:01:22.739Z,103292.94
2023-02-12T12:04:11.941Z,103292.94
2023-02-12T12:06:49.162Z,103285.88
2023-02-12T12:09:44.755Z,103275.19
2023-02-12T12:12:23.991Z,103281.47
2023-02-12T12:15:26.685Z,103281.56
2023-02-12T12:18:20.743Z,103283.38
2023-02-12T12:21:03.549Z,103282.63
2023-02-12T12:23:45.912Z,103276.47
2023-02-12T12:26:34.720Z,103279.19
2023-02-12T12:29:29.318Z,103271.31
2023-02-12T12:32:02.003Z,103272.19
2023-02-12T12:34:29.624Z,103272.19
2023-02-12T12:37:37.028Z,103271.44
2023-02-12T12:40:34.673Z,103266.13
2023-02-12T12:43:52.208Z,103267.03
2023-02-12T12:46:45.429Z,103260.81
2023-02-12T12:49:25.807Z,103256.41
2023-02-12T12:52:35.510Z,103256.41
2023-02-12T12:55:24.057Z,103255.50
2023-02-12T12:58:21.161Z,103251.03
2023-02-12T13:01:53.600Z,103241.22
2023-02-12T13:04:59.017Z,103248.28
2023-02-12T13:07:55.153Z,103241.03
2023-02-12T13:10:33.816Z,103247.31
2023-02-12T13:13:35.568Z,103242.97
2023-02-12T13:16:29.044Z,103241.31
2023-02-12T13:19:23.098Z,103243.25
2023-02-12T13:22:47.263Z,103237.94
2023-02-12T13:25:29.739Z,103230.97
2023-02-12T13:27:59.906Z,103223.97
2023-02-12T13:30:39.343Z,103230.31
2023-02-12T13:33:18.202Z,103223.25
2023-02-12T13:35:51.304Z,103219.63
2023-02-12T13:38:26.137Z,103223.13
2023-02-12T13:40:59.915Z,103227.47
2023-02-12T13:44:06.672Z,103228.22
2023-02-12T13:46:46.142Z,103222.78
2023-02-12T13:49:53.613Z,103232.31
2023-02-12T13:52:45.301Z,103217.97
2023-02-12T13:55:26.211Z,103216.16
2023-02-12T13:58:39.654Z,103221.41
2023-02-12T14:01:41.687Z,103221.28
2023-02-12T14:04:35.447Z,103220.34
2023-02-12T14:07:12.864Z,103223.84
2023-02-12T14:09:43.777Z,103226.50
2023-02-12T14:12:26.157Z,103223.78
2023-02-12T14:15:36.160Z,103223.75
2023-02-12T14:18:02.902Z,103218.38
2023-02-12T14:20:37.191Z,103213.06
2023-02-12T14:23:24.069Z,103228.00
2023-02-12T14:26:06.047Z,103220.88
2023-02-12T14:29:03.150Z,103226.19
2023-02-12T14:31:36.140Z,103226.19
2023-02-12T14:34:06.010Z,103231.50
2023-02-12T14:36:32.732Z,103224.38
2023-02-12T14:39:19.796Z,103222.63
2023-02-12T14:41:53.467Z,103229.78
2023-02-12T14:44:22.669Z,103238.66
2023-02-12T14:46:59.293Z,103236.84
2023-02-12T14:49:37.040Z,103236.84
2023-02-12T14:52:14.149Z,103238.59
2023-02-12T14:54:51.352Z,103237.59
2023-02-12T14:57:33.782Z,103237.53
2023-02-12T15:00:36.603Z,103229.53
2023-02-12T15:03:14.435Z,103235.69
2023-02-12T15:06:04.733Z,103236.53
2023-02-12T15:08:37.165Z,103234.72
2023-02-12T15:11:21.559Z,103236.44
2023-02-12T15:14:16.068Z,103231.00
2023-02-12T15:17:08.444Z,103237.19
2023-02-12T15:19:57.238Z,103231.81
2023-02-12T15:22:26.806Z,103234.41
2023-02-12T15:24:53.624Z,103232.72
2023-02-12T15:27:22.002Z,103239.84
2023-02-12T15:29:55.224Z,103240.75
2023-02-12T15:32:25.819Z,103235.38
2023-02-12T15:34:54.335Z,103242.50
2023-02-12T15:37:30.643Z,103233.63
2023-02-12T15:40:01.298Z,103237.13
2023-02-12T15:42:42.680Z,103243.34
2023-02-12T18:09:46.607Z,103294.69
2023-02-12T18:12:13.566Z,103288.59
2023-02-12T18:14:41.951Z,103290.28
2023-02-12T18:17:08.767Z,103291.25
2023-02-12T18:19:35.713Z,103287.69
2023-02-12T18:22:03.697Z,103287.75
2023-02-12T18:24:33.186Z,103290.38
2023-02-12T18:27:00.057Z,103297.50
2023-02-12T18:29:26.868Z,103294.03
2023-02-12T18:31:55.161Z,103287.81
2023-02-12T18:34:24.908Z,103287.81
2023-02-12T18:36:51.846Z,103290.53
2023-02-12T18:39:18.754Z,103287.88
2023-02-12T18:41:46.311Z,103286.06
2023-02-12T18:44:14.347Z,103290.53
2023-02-12T18:46:41.336Z,103288.72
2023-02-12T18:49:08.422Z,103284.31
2023-02-12T18:51:38.005Z,103289.56
2023-02-12T18:54:08.748Z,103285.22
2023-02-12T18:56:40.043Z,103284.34
2023-02-12T18:59:08.020Z,103286.09
2023-02-12T19:01:36.211Z,103288.81
2023-02-12T19:04:06.286Z,103287.97
2023-02-12T19:06:37.721Z,103287.00
2023-02-12T19:09:04.617Z,103288.81
2023-02-12T19:11:32.246Z,103285.31
2023-02-12T19:13:59.356Z,103290.63
2023-02-12T19:16:27.466Z,103283.59
2023-02-12T19:18:58.340Z,103292.47
2023-02-12T19:21:26.369Z,103294.22
2023-02-12T19:23:55.398Z,103299.59
2023-02-12T19:26:23.490Z,103305.81
2023-02-12T19:31:37.981Z,103305.75
2023-02-12T19:34:08.737Z,103312.78
2023-02-12T19:36:36.836Z,103310.03
2023-02-12T19:39:05.932Z,103310.03
2023-02-12T19:41:40.477Z,103309.97
2023-02-12T19:44:13.404Z,103307.28
2023-02-12T19:46:40.848Z,103306.28
2023-02-12T19:49:14.097Z,103305.31
2023-02-12T19:51:41.651Z,103311.41
2023-02-12T19:54:10.283Z,103320.22
2023-02-12T19:56:37.966Z,103322.03
2023-02-12T19:59:06.393Z,103316.72
2023-02-12T20:01:34.525Z,103317.56
2023-02-12T20:04:02.216Z,103313.09
2023-02-12T20:06:34.050Z,103314.78
2023-02-12T20:09:01.199Z,103323.59
2023-02-12T20:11:31.270Z,103312.16
2023-02-12T20:13:59.038Z,103320.94
2023-02-12T20:16:31.157Z,103323.59
2023-02-12T20:19:02.904Z,103318.28
2023-02-12T20:21:29.817Z,103321.78
2023-02-12T20:23:58.222Z,103326.19
2023-02-12T20:26:25.622Z,103326.19
2023-02-12T20:28:52.464Z,103328.91
2023-02-12T20:31:29.046Z,103328.06
2023-02-12T20:33:59.967Z,103323.63
2023-02-12T20:36:30.714Z,103326.28
2023-02-12T20:38:57.877Z,103322.75
2023-02-12T20:41:26.775Z,103328.94
2023-02-12T20:43:54.508Z,103318.31
2023-02-12T20:46:23.461Z,103316.56
2023-02-12T20:48:50.396Z,103320.97
2023-02-12T20:51:24.464Z,103326.34
2023-02-12T20:53:52.180Z,103321.84
2023-02-12T20:56:25.774Z,103312.97
2023-02-12T20:58:53.700Z,103316.47
2023-02-12T21:01:25.462Z,103310.25
2023-02-12T21:03:54.039Z,103312.00
2023-02-12T21:06:22.875Z,103319.06
2023-02-12T21:08:51.176Z,103316.41
2023-02-12T21:11:22.472Z,103311.97
2023-02-12T21:13:59.406Z,103315.50
2023-02-12T21:16:36.865Z,103312.84
2023-02-12T21:19:04.234Z,103316.38
2023-02-12T21:21:34.940Z,103315.38
2023-02-12T21:24:05.645Z,103312.75
2023-02-12T21:26:33.788Z,103308.25
2023-02-12T21:29:02.139Z,103305.63
2023-02-12T21:31:38.774Z,103313.56
2023-02-12T21:34:08.351Z,103313.56
2023-02-12T21:36:39.066Z,103315.38
2023-02-12T21:39:08.821Z,103316.22
2023-02-12T21:41:39.688Z,103309.13
2023-02-12T21:44:18.504Z,103307.31
2023-02-12T21:46:45.706Z,103310.81
2023-02-12T21:49:17.380Z,103306.41
2023-02-12T21:51:45.252Z,103307.25
2023-02-12T21:54:17.904Z,103307.25
2023-02-12T21:56:47.185Z,103303.69
2023-02-12T21:59:15.141Z,103291.25
2023-02-12T22:01:50.934Z,103298.38
2023-02-12T22:04:19.459Z,103292.13
2023-02-12T22:06:50.549Z,103285.84
2023-02-12T22:09:20.948Z,103287.56
2023-02-12T22:11:47.768Z,103290.22
2023-02-12T22:14:17.167Z,103281.28
2023-02-12T22:16:45.281Z,103287.38
2023-02-12T22:19:12.313Z,103293.53
2023-02-12T22:21:41.579Z,103292.69
2023-02-12T22:24:15.008Z,103289.13
2023-02-12T22:26:42.704Z,103291.72
2023-02-12T22:29:14.148Z,103292.63
2023-02-12T22:31:43.920Z,103292.63
2023-02-12T22:34:15.180Z,103295.34
2023-02-12T22:36:43.323Z,103296.19
2023-02-12T22:39:12.780Z,103287.31
2023-02-12T22:41:39.799Z,103285.50
2023-02-12T22:44:06.608Z,103285.56
2023-02-12T22:46:35.141Z,103290.88
2023-02-12T22:49:01.953Z,103289.13
2023-02-12T22:51:31.752Z,103291.78
2023-02-12T22:53:58.851Z,103294.44
2023-02-12T22:56:26.325Z,103289.97
2023-02-12T22:58:58.558Z,103290.81
2023-02-12T23:01:27.108Z,103289.00
2023-02-12T23:03:54.692Z,103293.41
2023-02-12T23:06:26.722Z,103287.25
2023-02-12T23:08:58.923Z,103294.38
2023-02-12T23:11:28.602Z,103288.16
2023-02-12T23:13:55.912Z,103288.16
2023-02-12T23:16:22.744Z,103289.97
2023-02-12T23:18:53.204Z,103290.81
2023-02-12T23:21:19.996Z,103291.72
2023-02-12T23:23:46.748Z,103291.72
2023-02-12T23:26:13.521Z,103284.59
2023-02-12T23:28:40.321Z,103282.81
2023-02-12T23:31:07.401Z,103277.50
2023-02-12T23:33:34.245Z,103274.78
2023-02-12T23:36:01.057Z,103277.50
2023-02-12T23:38:27.810Z,103287.22
2023-02-12T23:40:54.729Z,103281.84
2023-02-12T23:43:21.536Z,103287.13
2023-02-12T23:45:48.425Z,103281.84
2023-02-12T23:48:15.347Z,103286.22
2023-02-12T23:50:42.482Z,103278.28
2023-02-12T23:53:10.946Z,103279.09
2023-02-12T23:55:39.424Z,103279.09
2023-02-12T23:58:07.309Z,103274.69
